createdAt,value
2023-05-05T12:08:11.652Z,99863.09
2023-05-05T12:10:39.136Z,99860.72
2023-05-05T12:13:17.924Z,99855.59
2023-05-05T12:15:45.249Z,99854.66
2023-05-05T12:18:18.741Z,99853.25
2023-05-05T12:20:46.214Z,99850.50
2023-05-05T12:23:14.910Z,99841.69
2023-05-05T12:25:42.271Z,99834.16
2023-05-05T12:28:09.951Z,99837.69
2023-05-05T12:30:37.611Z,99834.34
2023-05-05T12:33:06.571Z,99828.38
2023-05-05T12:35:34.669Z,99825.81
2023-05-05T12:38:02.129Z,99816.50
2023-05-05T12:40:47.916Z,99818.72
2023-05-05T12:43:25.249Z,99814.97
2023-05-05T12:46:06.729Z,99813.66
2023-05-05T12:48:34.752Z,99801.19
2023-05-05T12:51:16.176Z,99815.78
2023-05-05T12:53:43.750Z,99808.56
2023-05-05T12:56:35.283Z,99807.00
2023-05-05T12:59:03.953Z,99795.63
2023-05-05T13:01:31.833Z,99784.88
2023-05-05T13:04:06.571Z,99778.34
2023-05-05T13:06:34.056Z,99781.06
2023-05-05T13:09:01.418Z,99772.63
2023-05-05T13:11:28.708Z,99776.34
2023-05-05T13:13:57.913Z,99778.09
2023-05-05T13:16:25.386Z,99780.50
2023-05-05T13:18:52.776Z,99776.78
2023-05-05T13:21:20.086Z,99772.38
2023-05-05T13:23:47.419Z,99767.34
2023-05-05T13:26:14.834Z,99764.28
2023-05-05T13:28:42.140Z,99752.78
2023-05-05T13:31:10.871Z,99755.72
2023-05-05T13:33:38.209Z,99749.34
2023-05-05T13:36:05.792Z,99753.41
2023-05-05T13:38:33.175Z,99741.03
2023-05-05T13:41:00.614Z,99739.41
2023-05-05T13:43:28.016Z,99744.88
2023-05-05T13:46:02.881Z,99745.31
2023-05-05T13:48:38.083Z,99745.00
2023-05-05T13:51:06.148Z,99737.88
2023-05-05T13:53:34.036Z,99730.75
2023-05-05T13:56:02.852Z,99732.00
2023-05-05T13:58:31.002Z,99733.22
2023-05-05T14:00:58.787Z,99732.03
2023-05-05T14:03:26.916Z,99727.88
2023-05-05T14:05:56.840Z,99730.59
2023-05-05T14:08:24.190Z,99722.47
2023-05-05T14:10:52.241Z,99717.72
2023-05-05T14:13:22.742Z,99723.53
2023-05-05T14:15:50.121Z,99726.38
2023-05-05T14:18:17.415Z,99728.06
2023-05-05T14:20:44.719Z,99721.00
2023-05-05T14:23:13.417Z,99718.28
2023-05-05T14:25:40.721Z,99722.19
2023-05-05T14:28:08.040Z,99724.88
2023-05-05T14:33:20.508Z,99727.06
2023-05-05T14:35:47.839Z,99728.06
2023-05-05T14:38:16.568Z,99712.47
2023-05-05T14:40:43.871Z,99713.00
2023-05-05T14:43:11.152Z,99718.06
2023-05-05T14:45:38.514Z,99716.97
2023-05-05T14:48:06.039Z,99711.22
2023-05-05T14:50:33.325Z,99708.41
2023-05-05T14:53:00.793Z,99704.31
2023-05-05T14:55:29.468Z,99709.81
2023-05-05T14:57:56.837Z,99715.63
2023-05-05T15:00:24.420Z,99707.88
2023-05-05T15:02:51.766Z,99701.19
2023-05-05T15:05:19.134Z,99703.84
2023-05-05T15:07:46.448Z,99709.47
2023-05-05T15:10:13.708Z,99709.03
2023-05-05T15:12:42.410Z,99707.72
2023-05-05T15:15:10.545Z,99696.72
2023-05-05T15:17:38.155Z,99697.59
2023-05-05T15:20:06.996Z,99709.09
2023-05-05T15:22:34.705Z,99709.56
2023-05-05T15:25:02.112Z,99709.91
2023-05-05T15:27:29.460Z,99698.69
2023-05-05T15:29:58.123Z,99708.34
2023-05-05T15:32:27.924Z,99705.22
2023-05-05T15:34:55.245Z,99706.06
2023-05-05T15:37:22.609Z,99704.78
2023-05-05T15:39:52.234Z,99697.66
2023-05-05T15:42:19.542Z,99703.13
2023-05-05T15:44:46.884Z,99705.91
2023-05-05T15:47:15.593Z,99697.66
2023-05-05T15:49:42.935Z,99692.09
2023-05-05T15:52:10.249Z,99684.22
2023-05-05T15:54:37.589Z,99681.69
2023-05-05T15:57:04.971Z,99681.91
2023-05-05T15:59:35.705Z,99677.31
2023-05-05T16:02:03.144Z,99692.09
2023-05-05T16:04:32.000Z,99684.53
2023-05-05T16:06:59.320Z,99689.91
2023-05-05T16:09:26.579Z,99689.16
2023-05-05T16:11:53.974Z,99691.56
2023-05-05T16:14:21.404Z,99676.13
2023-05-05T16:16:48.839Z,99681.03
2023-05-05T16:19:16.339Z,99676.25
2023-05-05T16:21:45.157Z,99674.47
2023-05-05T16:24:12.512Z,99674.53
2023-05-05T16:26:39.814Z,99672.44
2023-05-05T16:29:07.201Z,99675.69
2023-05-05T16:31:34.600Z,99670.91
2023-05-05T16:34:02.058Z,99663.81
2023-05-05T16:36:29.525Z,99669.13
2023-05-05T16:38:58.232Z,99657.34
2023-05-05T16:41:25.621Z,99655.41
2023-05-05T16:43:53.080Z,99664.88
2023-05-05T16:46:20.419Z,99659.66
2023-05-05T16:48:48.395Z,99657.06
2023-05-05T16:51:15.761Z,99652.84
2023-05-05T16:53:43.086Z,99657.41
2023-05-05T16:56:12.774Z,99650.50
2023-05-05T16:58:40.339Z,99666.44
2023-05-05T17:01:07.634Z,99666.06
2023-05-05T17:03:34.969Z,99662.16
2023-05-05T17:06:02.333Z,99657.06
2023-05-05T17:08:29.760Z,99647.53
2023-05-05T17:10:57.257Z,99656.50
2023-05-05T17:13:25.911Z,99653.69
2023-05-05T17:15:53.334Z,99658.28
2023-05-05T17:18:20.660Z,99651.53
2023-05-05T17:20:49.371Z,99656.03
2023-05-05T17:23:16.754Z,99653.41
2023-05-05T17:25:44.157Z,99651.66
2023-05-05T17:28:11.554Z,99632.19
2023-05-05T17:30:40.273Z,99657.38
2023-05-05T17:33:07.700Z,99646.53
2023-05-05T17:35:35.083Z,99644.22
2023-05-05T17:38:02.439Z,99641.72
2023-05-05T17:40:29.804Z,99644.22
2023-05-05T17:42:57.107Z,99635.56
2023-05-05T17:45:24.551Z,99636.78
2023-05-05T17:47:56.191Z,99634.63
2023-05-05T17:50:23.562Z,99632.34
2023-05-05T17:52:50.872Z,99637.50
2023-05-05T17:55:18.357Z,99635.31
2023-05-05T17:57:45.615Z,99639.50
2023-05-05T18:00:13.964Z,99633.66
2023-05-05T18:02:41.695Z,99642.56
2023-05-05T18:05:10.658Z,99645.47
2023-05-05T18:07:38.301Z,99644.13
2023-05-05T18:10:07.512Z,99649.50
2023-05-05T18:12:34.873Z,99646.38
2023-05-05T18:15:02.680Z,99647.34
2023-05-05T18:17:30.031Z,99649.66
2023-05-05T18:19:57.369Z,99649.53
2023-05-05T18:22:26.104Z,99646.13
2023-05-05T18:24:53.496Z,99653.19
2023-05-05T18:27:20.861Z,99647.00
2023-05-05T18:29:48.136Z,99651.72
2023-05-05T18:32:15.430Z,99659.38
2023-05-05T18:34:42.794Z,99656.59
2023-05-05T18:37:10.188Z,99650.75
2023-05-05T18:39:38.877Z,99650.84
2023-05-05T18:42:06.135Z,99648.16
2023-05-05T18:44:33.616Z,99650.03
2023-05-05T18:47:01.151Z,99655.88
2023-05-05T18:49:30.392Z,99652.19
2023-05-05T18:51:58.724Z,99653.84
2023-05-05T18:54:26.030Z,99642.88
2023-05-05T18:56:54.784Z,99656.50
2023-05-05T18:59:22.313Z,99660.91
2023-05-05T19:01:49.643Z,99669.47
2023-05-05T19:04:30.199Z,99669.59
2023-05-05T19:06:58.557Z,99666.19
2023-05-05T19:09:26.064Z,99667.13
2023-05-05T19:11:54.728Z,99678.44
2023-05-05T19:14:22.617Z,99679.72
2023-05-05T19:16:50.285Z,99680.31
2023-05-05T19:19:17.714Z,99683.97
2023-05-05T19:21:45.015Z,99686.72
2023-05-05T19:24:12.334Z,99692.75
2023-05-05T19:26:39.721Z,99684.72
2023-05-05T19:29:08.412Z,99686.25
2023-05-05T19:31:35.759Z,99684.78
2023-05-05T19:34:04.700Z,99685.25
2023-05-05T19:36:32.926Z,99692.25
2023-05-05T19:39:00.563Z,99688.78
2023-05-05T19:41:27.990Z,99690.91
2023-05-05T19:43:55.290Z,99681.19
2023-05-05T19:46:24.266Z,99681.88
2023-05-05T19:48:51.704Z,99690.50
2023-05-05T19:51:19.006Z,99690.81
2023-05-05T19:53:46.419Z,99698.97
2023-05-05T19:56:13.699Z,99689.38
2023-05-05T19:58:57.656Z,99690.38
2023-05-05T20:01:26.948Z,99691.81
2023-05-05T20:03:56.579Z,99696.75
2023-05-05T20:06:24.455Z,99697.25
2023-05-05T20:08:51.901Z,99688.34
2023-05-05T20:11:19.211Z,99697.59
2023-05-05T20:13:46.650Z,99690.50
2023-05-05T20:16:14.019Z,99687.41
2023-05-05T20:18:42.807Z,99695.94
2023-05-05T20:21:10.202Z,99704.31
2023-05-05T20:23:37.545Z,99695.31
2023-05-05T20:26:04.916Z,99700.00
2023-05-05T20:28:32.293Z,99693.66
2023-05-05T20:30:59.694Z,99694.72
2023-05-05T20:33:27.495Z,99702.16
2023-05-05T20:35:56.236Z,99699.84
2023-05-05T20:38:23.600Z,99699.00
2023-05-05T20:40:50.947Z,99695.34
2023-05-05T20:43:18.315Z,99698.22
2023-05-05T20:45:45.671Z,99702.75
2023-05-05T20:48:12.961Z,99696.94
2023-05-05T20:50:41.074Z,99695.66
2023-05-05T20:53:11.914Z,99707.50
2023-05-05T20:55:39.528Z,99707.88
2023-05-05T20:58:06.871Z,99702.91
2023-05-05T21:00:34.299Z,99706.94
2023-05-05T21:03:01.765Z,99699.44
2023-05-05T21:05:29.953Z,99709.53
2023-05-05T21:07:58.543Z,99705.47
2023-05-05T21:10:29.257Z,99703.38
2023-05-05T21:12:56.615Z,99706.69
2023-05-05T21:15:24.183Z,99698.81
2023-05-05T21:17:51.553Z,99700.06
2023-05-05T21:20:19.189Z,99697.13
2023-05-05T21:22:46.606Z,99694.25
2023-05-05T21:25:16.986Z,99690.91
2023-05-05T21:27:47.213Z,99690.66
2023-05-05T21:30:15.163Z,99688.81
2023-05-05T21:32:42.660Z,99692.09
2023-05-05T21:35:10.033Z,99686.66
2023-05-05T21:37:38.216Z,99677.75
2023-05-05T21:40:06.627Z,99681.53
2023-05-05T21:42:33.928Z,99676.38
2023-05-05T21:45:02.652Z,99675.34
2023-05-05T21:47:30.031Z,99675.19
2023-05-05T21:49:57.911Z,99673.06
2023-05-05T21:52:25.361Z,99673.47
2023-05-05T21:54:52.680Z,99676.16
2023-05-05T21:57:20.059Z,99669.72
2023-05-05T21:59:47.448Z,99661.19
2023-05-05T22:02:16.135Z,99659.53
2023-05-05T22:04:43.460Z,99657.44
2023-05-05T22:07:10.769Z,99656.38
2023-05-05T22:09:38.173Z,99654.69
2023-05-05T22:12:05.910Z,99654.53
2023-05-05T22:14:33.242Z,99657.00
2023-05-05T22:17:00.583Z,99649.97
2023-05-05T22:19:29.272Z,99651.28
2023-05-05T22:21:57.817Z,99648.34
2023-05-05T22:24:25.142Z,99639.41
2023-05-05T22:26:52.517Z,99651.47
2023-05-05T22:29:19.844Z,99645.22
2023-05-05T22:31:47.193Z,99632.53
2023-05-05T22:34:14.976Z,99635.66
2023-05-05T22:36:43.677Z,99640.44
2023-05-05T22:39:10.979Z,99637.31
2023-05-05T22:41:38.302Z,99645.44
2023-05-05T22:44:05.741Z,99637.53
2023-05-05T22:46:33.158Z,99640.00
2023-05-05T22:49:00.573Z,99640.22
2023-05-05T22:51:27.896Z,99633.56
2023-05-05T22:53:56.664Z,99634.63
2023-05-05T22:56:23.935Z,99635.50
2023-05-05T22:58:51.204Z,99633.00
2023-05-05T23:01:18.613Z,99627.81
2023-05-05T23:03:45.937Z,99623.44
2023-05-05T23:06:13.196Z,99624.50
2023-05-05T23:08:40.535Z,99623.66
2023-05-05T23:11:09.184Z,99631.38
2023-05-05T23:13:36.494Z,99633.88
2023-05-05T23:16:04.295Z,99624.50
2023-05-05T23:18:31.655Z,99634.91
2023-05-05T23:20:59.046Z,99630.75
2023-05-05T23:23:26.357Z,99628.88
2023-05-05T23:25:53.660Z,99632.41
2023-05-05T23:28:22.366Z,99628.03
2023-05-05T23:30:49.697Z,99633.25
2023-05-05T23:33:17.017Z,99622.03
2023-05-05T23:35:44.326Z,99626.59
2023-05-05T23:38:11.650Z,99626.81
2023-05-05T23:40:38.920Z,99625.34
2023-05-05T23:43:06.210Z,99617.88
2023-05-05T23:45:34.900Z,99616.00
2023-05-05T23:48:02.266Z,99615.16
2023-05-05T23:50:29.676Z,99613.50
2023-05-05T23:52:56.961Z,99611.22
2023-05-05T23:55:24.568Z,99614.94
2023-05-05T23:57:51.887Z,99603.53
